Time;durP1;ratioP1;P1;durP2;ratioP2;P2;SDS_P1;SDS_P2;PMS_P1;PMS_P2;Temp;Humidity;BMP_temperature;BMP_pressure;BME280_temperature;BME280_humidity;BME280_pressure;Samples;Min_cycle;Max_cycle;Signal;HPM_P1;HPM_P2
2022/11/13 00:01:56;;;;;;;;;;;5.70;99.90;;;;;;5000846;28;20358;-70
2022/11/13 00:04:21;;;;;;;;;;;5.70;99.90;;;;;;5001332;28;19921;-72
2022/11/13 00:06:47;;;;;;;;;;;5.80;99.90;;;;;;4988597;28;19957;-71
2022/11/13 00:09:13;;;;;;;;;;;5.80;99.90;;;;;;4991331;28;19922;-70
2022/11/13 00:11:38;;;;;;;;;;;5.80;99.90;;;;;;4994103;28;19929;-70
2022/11/13 00:14:04;;;;;;;;;;;5.80;99.90;;;;;;4995959;28;20369;-70
2022/11/13 00:16:29;;;;;;;;;;;5.90;99.90;;;;;;5000858;28;19926;-71
2022/11/13 00:18:55;;;;;;;;;;;5.90;99.90;;;;;;4989633;28;20334;-70
2022/11/13 00:21:22;;;;;;;;;;;5.90;99.90;;;;;;4990447;28;20322;-70
2022/11/13 00:23:47;;;;;;;;;;;6.00;99.90;;;;;;4990846;28;19922;-70
2022/11/13 00:26:14;;;;;;;;;;;6.20;99.90;;;;;;4991389;28;19929;-71
2022/11/13 00:28:40;;;;;;;;;;;6.20;99.90;;;;;;4990209;28;19922;-71
2022/11/13 00:31:07;;;;;;;;;;;6.30;99.90;;;;;;4991135;28;20401;-70
2022/11/13 00:33:32;;;;;;;;;;;6.30;99.90;;;;;;4991394;28;20395;-71
2022/11/13 00:36:06;;;;;;;;;;;6.40;99.90;;;;;;4989909;28;19922;-71
2022/11/13 00:38:31;;;;;;;;;;;6.40;99.90;;;;;;4990851;28;20297;-70
2022/11/13 00:41:00;;;;;;;;;;;6.70;99.90;;;;;;4989195;28;19921;-70
2022/11/13 00:43:25;;;;;;;;;;;7.30;99.90;;;;;;4991838;28;19922;-71
2022/11/13 00:45:51;;;;;;;;;;;6.50;99.90;;;;;;4990651;28;19932;-70
2022/11/13 00:48:16;;;;;;;;;;;6.50;99.90;;;;;;4990486;28;19926;-71
2022/11/13 00:50:44;;;;;;;;;;;6.60;99.90;;;;;;4991652;28;19926;-71
2022/11/13 00:53:10;;;;;;;;;;;6.50;99.90;;;;;;4990245;28;19936;-70
2022/11/13 00:55:35;;;;;;;;;;;6.50;99.90;;;;;;4989799;28;20173;-71
2022/11/13 00:58:01;;;;;;;;;;;6.40;99.90;;;;;;4990261;28;19926;-70
2022/11/13 01:00:27;;;;;;;;;;;6.40;99.90;;;;;;4991153;28;20673;-70
2022/11/13 01:02:52;;;;;;;;;;;6.40;99.90;;;;;;4987801;28;19982;-70
2022/11/13 01:05:18;;;;;;;;;;;6.40;99.90;;;;;;4990257;28;19928;-71
2022/11/13 01:07:43;;;;;;;;;;;6.40;99.90;;;;;;4989767;28;19925;-71
2022/11/13 01:10:09;;;;;;;;;;;6.40;99.90;;;;;;4990616;28;20394;-71
2022/11/13 01:12:35;;;;;;;;;;;6.40;99.90;;;;;;4989739;28;19929;-71
2022/11/13 01:15:00;;;;;;;;;;;6.30;99.90;;;;;;4989527;28;19983;-71
2022/11/13 01:17:26;;;;;;;;;;;6.30;99.90;;;;;;4989823;28;20229;-71
2022/11/13 01:19:51;;;;;;;;;;;6.20;99.90;;;;;;4990137;28;19922;-71
2022/11/13 01:22:17;;;;;;;;;;;6.20;99.90;;;;;;4990840;28;20288;-71
2022/11/13 01:24:42;;;;;;;;;;;6.20;99.90;;;;;;4989358;28;19922;-71
2022/11/13 01:27:08;;;;;;;;;;;6.10;99.90;;;;;;4990711;28;19922;-71
2022/11/13 01:29:33;;;;;;;;;;;6.10;99.90;;;;;;4986055;28;19921;-72
2022/11/13 01:31:59;;;;;;;;;;;6.10;99.90;;;;;;4991387;28;19945;-71
2022/11/13 01:34:24;;;;;;;;;;;6.00;99.90;;;;;;4989798;28;19926;-71
2022/11/13 01:36:50;;;;;;;;;;;6.00;99.90;;;;;;4992752;28;20300;-71
2022/11/13 01:39:16;;;;;;;;;;;6.00;99.90;;;;;;4989123;28;19921;-71
2022/11/13 01:41:41;;;;;;;;;;;6.00;99.90;;;;;;4988406;28;19922;-70
2022/11/13 01:44:11;;;;;;;;;;;6.00;99.90;;;;;;4990357;28;19922;-71
2022/11/13 01:46:44;;;;;;;;;;;6.00;99.90;;;;;;4989739;28;19926;-71
2022/11/13 01:49:10;;;;;;;;;;;5.90;99.90;;;;;;4990927;28;19929;-71
2022/11/13 01:51:38;;;;;;;;;;;5.90;99.90;;;;;;4988765;28;19922;-71
2022/11/13 01:54:05;;;;;;;;;;;5.90;99.90;;;;;;4988935;28;19922;-70
2022/11/13 01:56:31;;;;;;;;;;;5.90;99.90;;;;;;4989202;28;19929;-71
2022/11/13 01:59:02;;;;;;;;;;;5.90;99.90;;;;;;4989311;28;20016;-70
2022/11/13 02:01:28;;;;;;;;;;;5.90;99.90;;;;;;4988657;28;19921;-71
2022/11/13 02:03:53;;;;;;;;;;;5.90;99.90;;;;;;4989617;28;19991;-70
2022/11/13 02:06:20;;;;;;;;;;;5.90;99.90;;;;;;4989336;28;19975;-71
2022/11/13 02:08:46;;;;;;;;;;;5.80;99.90;;;;;;4989316;28;19922;-71
2022/11/13 02:11:12;;;;;;;;;;;5.80;99.90;;;;;;4988642;28;19928;-71
2022/11/13 02:13:38;;;;;;;;;;;5.80;99.90;;;;;;4989520;28;20016;-71
2022/11/13 02:16:05;;;;;;;;;;;5.80;99.90;;;;;;4990002;28;19921;-71
2022/11/13 02:18:32;;;;;;;;;;;5.80;99.90;;;;;;4992774;28;19922;-72
2022/11/13 02:21:15;;;;;;;;;;;5.80;99.90;;;;;;4987656;28;19918;-71
2022/11/13 02:24:06;;;;;;;;;;;5.80;99.90;;;;;;4989465;28;19921;-72
2022/11/13 02:26:32;;;;;;;;;;;5.80;99.90;;;;;;4983335;28;19922;-72
2022/11/13 02:28:58;;;;;;;;;;;5.80;99.90;;;;;;4992653;28;19922;-71
2022/11/13 02:31:23;;;;;;;;;;;5.90;99.90;;;;;;4988853;28;19922;-72
2022/11/13 02:33:49;;;;;;;;;;;5.70;99.90;;;;;;4987158;28;19983;-72
2022/11/13 02:36:15;;;;;;;;;;;5.70;99.90;;;;;;4989813;28;19974;-71
2022/11/13 02:38:41;;;;;;;;;;;5.70;99.90;;;;;;4990548;28;19930;-72
2022/11/13 02:41:06;;;;;;;;;;;5.80;99.90;;;;;;4988923;28;19926;-71
2022/11/13 02:43:32;;;;;;;;;;;5.70;99.90;;;;;;4989083;28;20017;-72
2022/11/13 02:45:57;;;;;;;;;;;5.70;99.90;;;;;;4989235;28;19922;-72
2022/11/13 02:48:23;;;;;;;;;;;5.90;99.90;;;;;;4987767;28;20357;-72
2022/11/13 02:50:49;;;;;;;;;;;5.70;99.90;;;;;;4988957;28;19967;-71
2022/11/13 02:53:14;;;;;;;;;;;5.70;99.90;;;;;;4989359;28;19932;-72
2022/11/13 02:55:42;;;;;;;;;;;5.80;99.90;;;;;;4988188;28;19964;-72
2022/11/13 02:58:08;;;;;;;;;;;5.70;99.90;;;;;;4989372;28;19976;-72
2022/11/13 03:00:33;;;;;;;;;;;6.10;99.90;;;;;;4990204;28;20376;-72
2022/11/13 03:02:59;;;;;;;;;;;7.50;99.90;;;;;;4992050;28;19928;-71
2022/11/13 03:05:24;;;;;;;;;;;5.70;99.90;;;;;;4992627;28;19922;-72
2022/11/13 03:07:50;;;;;;;;;;;5.70;99.90;;;;;;4995858;28;19926;-72
2022/11/13 03:10:16;;;;;;;;;;;5.70;99.90;;;;;;4990553;28;19922;-71
2022/11/13 03:12:41;;;;;;;;;;;5.70;99.90;;;;;;4990820;28;20342;-71
2022/11/13 03:15:07;;;;;;;;;;;5.70;99.90;;;;;;4992147;28;19997;-71
2022/11/13 03:17:33;;;;;;;;;;;5.80;99.90;;;;;;4991562;28;20004;-72
2022/11/13 03:19:59;;;;;;;;;;;5.80;99.90;;;;;;4992673;28;19925;-69
2022/11/13 03:22:26;;;;;;;;;;;5.80;99.90;;;;;;4992087;28;20440;-70
2022/11/13 03:24:51;;;;;;;;;;;5.80;99.90;;;;;;4991259;28;19929;-70
2022/11/13 03:27:17;;;;;;;;;;;5.80;99.90;;;;;;4992329;28;20418;-70
2022/11/13 03:29:42;;;;;;;;;;;5.90;99.90;;;;;;4994152;28;19922;-70
2022/11/13 03:32:08;;;;;;;;;;;5.80;99.90;;;;;;4991329;28;19979;-70
2022/11/13 03:34:33;;;;;;;;;;;5.80;99.90;;;;;;4990432;28;19922;-71
2022/11/13 03:36:59;;;;;;;;;;;5.80;99.90;;;;;;4991951;28;19922;-70
2022/11/13 03:39:24;;;;;;;;;;;5.80;99.90;;;;;;4991953;28;19932;-70
2022/11/13 03:41:50;;;;;;;;;;;5.80;99.90;;;;;;4991836;28;19978;-70
2022/11/13 03:44:15;;;;;;;;;;;5.90;99.90;;;;;;4990829;28;20354;-70
2022/11/13 03:46:44;;;;;;;;;;;5.80;99.90;;;;;;4991764;28;19956;-70
2022/11/13 03:49:09;;;;;;;;;;;6.20;99.90;;;;;;4992131;28;19922;-71
2022/11/13 03:51:35;;;;;;;;;;;5.90;99.90;;;;;;4989175;28;19922;-70
2022/11/13 03:54:00;;;;;;;;;;;5.90;99.90;;;;;;4991831;28;19928;-70
2022/11/13 03:56:27;;;;;;;;;;;5.90;99.90;;;;;;4991415;28;19926;-70
2022/11/13 03:58:52;;;;;;;;;;;5.90;99.90;;;;;;4990590;28;20301;-70
2022/11/13 04:01:18;;;;;;;;;;;5.90;99.90;;;;;;4991062;28;19929;-69
2022/11/13 04:03:43;;;;;;;;;;;5.90;99.90;;;;;;4991276;28;19929;-70
2022/11/13 04:06:09;;;;;;;;;;;5.90;99.90;;;;;;4990847;28;19922;-69
2022/11/13 04:08:35;;;;;;;;;;;6.80;99.90;;;;;;4991450;28;19922;-70
2022/11/13 04:11:07;;;;;;;;;;;6.00;99.90;;;;;;4990284;28;19928;-70
2022/11/13 04:13:33;;;;;;;;;;;6.00;99.90;;;;;;4990531;28;19921;-71
2022/11/13 04:15:58;;;;;;;;;;;6.00;99.90;;;;;;4991215;28;19928;-70
2022/11/13 04:18:24;;;;;;;;;;;6.00;99.90;;;;;;4991631;28;19928;-71
2022/11/13 04:20:57;;;;;;;;;;;6.00;99.90;;;;;;4990329;28;19965;-70
2022/11/13 04:23:23;;;;;;;;;;;6.00;99.90;;;;;;4993817;28;19918;-71
2022/11/13 04:25:48;;;;;;;;;;;6.00;99.90;;;;;;4990850;28;19928;-71
2022/11/13 04:28:17;;;;;;;;;;;6.00;99.90;;;;;;4989251;28;20005;-71
2022/11/13 04:30:42;;;;;;;;;;;6.00;99.90;;;;;;4990966;28;19922;-72
2022/11/13 04:33:08;;;;;;;;;;;6.00;99.90;;;;;;4989442;28;20335;-71
2022/11/13 04:35:33;;;;;;;;;;;4.90;99.90;;;;;;4992488;28;19928;-71
2022/11/13 04:37:59;;;;;;;;;;;6.40;99.90;;;;;;4991251;28;19975;-72
2022/11/13 04:40:25;;;;;;;;;;;5.90;99.90;;;;;;4990236;28;19925;-71
2022/11/13 04:42:50;;;;;;;;;;;5.90;99.90;;;;;;4989527;28;19969;-72
2022/11/13 04:45:17;;;;;;;;;;;5.90;99.90;;;;;;4991300;28;19921;-72
2022/11/13 04:47:43;;;;;;;;;;;5.80;99.90;;;;;;4988971;28;19929;-71
2022/11/13 04:50:11;;;;;;;;;;;5.80;99.90;;;;;;4993326;28;20427;-72
2022/11/13 04:52:37;;;;;;;;;;;5.80;99.90;;;;;;4990854;28;19933;-71
2022/11/13 04:55:03;;;;;;;;;;;5.80;99.90;;;;;;4990141;28;19922;-72
2022/11/13 04:57:29;;;;;;;;;;;5.80;99.90;;;;;;4986880;28;19917;-71
2022/11/13 04:59:54;;;;;;;;;;;5.80;99.90;;;;;;4991537;28;19963;-72
2022/11/13 05:02:20;;;;;;;;;;;5.70;99.90;;;;;;4990127;28;19921;-72
2022/11/13 05:04:45;;;;;;;;;;;5.70;99.90;;;;;;4990680;28;20303;-72
2022/11/13 05:07:11;;;;;;;;;;;5.70;99.90;;;;;;4990631;28;19921;-72
2022/11/13 05:09:36;;;;;;;;;;;5.70;99.90;;;;;;4992888;28;20442;-70
2022/11/13 05:12:03;;;;;;;;;;;5.70;99.90;;;;;;4990432;28;19929;-70
2022/11/13 05:14:29;;;;;;;;;;;5.60;99.90;;;;;;4985749;28;19922;-70
2022/11/13 05:16:54;;;;;;;;;;;5.60;99.90;;;;;;4988310;28;19975;-70
2022/11/13 05:19:20;;;;;;;;;;;5.70;99.90;;;;;;4991265;28;19930;-70
2022/11/13 05:21:46;;;;;;;;;;;5.70;99.90;;;;;;4991072;28;19928;-70
2022/11/13 05:24:14;;;;;;;;;;;5.60;99.90;;;;;;4988400;28;19918;-71
2022/11/13 05:26:40;;;;;;;;;;;5.60;99.90;;;;;;4989996;28;19922;-70
2022/11/13 05:29:05;;;;;;;;;;;5.60;99.90;;;;;;4989653;28;19926;-70
2022/11/13 05:31:31;;;;;;;;;;;5.60;99.90;;;;;;4991857;28;19929;-71
2022/11/13 05:33:56;;;;;;;;;;;5.70;99.90;;;;;;4990547;28;19961;-70
2022/11/13 05:36:22;;;;;;;;;;;5.60;99.90;;;;;;4991257;28;19922;-71
2022/11/13 05:38:47;;;;;;;;;;;5.60;99.90;;;;;;4996399;28;19928;-69
2022/11/13 05:41:17;;;;;;;;;;;5.60;99.90;;;;;;4997204;28;20063;-70
2022/11/13 05:43:46;;;;;;;;;;;5.70;99.90;;;;;;4996473;28;20012;-70
2022/11/13 05:46:13;;;;;;;;;;;5.60;99.90;;;;;;4990815;28;20012;-70
2022/11/13 05:48:39;;;;;;;;;;;5.60;99.90;;;;;;4988945;28;19922;-70
2022/11/13 05:51:10;;;;;;;;;;;5.60;99.90;;;;;;4989444;28;19924;-70
2022/11/13 05:53:35;;;;;;;;;;;5.60;99.90;;;;;;4989943;28;20361;-70
2022/11/13 05:56:03;;;;;;;;;;;5.60;99.90;;;;;;4988730;28;19929;-70
2022/11/13 05:58:29;;;;;;;;;;;5.60;99.90;;;;;;4989594;28;19929;-70
2022/11/13 06:01:08;;;;;;;;;;;5.60;99.90;;;;;;4989492;28;20012;-71
2022/11/13 06:03:34;;;;;;;;;;;5.60;99.90;;;;;;4989793;28;19921;-70
2022/11/13 06:05:59;;;;;;;;;;;5.60;99.90;;;;;;4989084;28;19928;-70
2022/11/13 06:08:25;;;;;;;;;;;5.60;99.90;;;;;;4989856;28;19921;-70
2022/11/13 06:10:50;;;;;;;;;;;5.60;99.90;;;;;;4989472;28;19926;-71
2022/11/13 06:13:16;;;;;;;;;;;5.60;99.90;;;;;;4988277;28;19922;-70
2022/11/13 06:15:41;;;;;;;;;;;5.70;99.90;;;;;;4988137;28;19928;-70
2022/11/13 06:18:07;;;;;;;;;;;5.60;99.90;;;;;;4989618;28;20032;-70
2022/11/13 06:20:34;;;;;;;;;;;5.60;99.90;;;;;;4988764;28;19928;-70
2022/11/13 06:22:59;;;;;;;;;;;6.00;99.90;;;;;;4989625;28;19968;-70
2022/11/13 06:25:26;;;;;;;;;;;5.60;99.90;;;;;;4990013;28;20285;-71
2022/11/13 06:27:52;;;;;;;;;;;5.60;99.90;;;;;;4991665;28;19921;-70
2022/11/13 06:30:17;;;;;;;;;;;5.60;99.90;;;;;;4989851;28;19928;-70
2022/11/13 06:32:43;;;;;;;;;;;5.60;99.90;;;;;;4983322;28;20337;-71
2022/11/13 06:35:09;;;;;;;;;;;5.60;99.90;;;;;;4990687;28;20003;-70
2022/11/13 06:37:34;;;;;;;;;;;5.60;99.90;;;;;;4992937;28;19925;-71
2022/11/13 06:40:00;;;;;;;;;;;5.60;99.90;;;;;;4993732;28;19929;-71
2022/11/13 06:42:25;;;;;;;;;;;5.60;99.90;;;;;;4992709;28;19922;-71
2022/11/13 06:44:54;;;;;;;;;;;5.60;99.90;;;;;;4992743;28;19929;-71
2022/11/13 06:47:19;;;;;;;;;;;5.50;99.90;;;;;;4991761;28;19966;-70
2022/11/13 06:49:45;;;;;;;;;;;5.50;99.90;;;;;;4994365;28;20382;-71
2022/11/13 06:52:10;;;;;;;;;;;5.50;99.90;;;;;;4992692;28;19925;-70
2022/11/13 06:54:36;;;;;;;;;;;5.50;99.90;;;;;;4991841;28;19922;-70
2022/11/13 06:57:01;;;;;;;;;;;5.60;99.90;;;;;;4992721;28;20369;-70
2022/11/13 06:59:27;;;;;;;;;;;5.60;99.90;;;;;;4991485;28;19932;-70
2022/11/13 07:01:52;;;;;;;;;;;5.60;99.90;;;;;;4991969;28;19929;-70
2022/11/13 07:04:18;;;;;;;;;;;5.60;99.90;;;;;;4991358;28;19921;-70
2022/11/13 07:06:43;;;;;;;;;;;5.50;99.90;;;;;;4991885;28;20336;-70
2022/11/13 07:09:09;;;;;;;;;;;5.50;99.90;;;;;;4992079;28;19922;-70
2022/11/13 07:11:34;;;;;;;;;;;5.60;99.90;;;;;;4992698;28;19925;-70
2022/11/13 07:14:00;;;;;;;;;;;5.50;99.90;;;;;;4994595;28;20357;-69
2022/11/13 07:16:25;;;;;;;;;;;5.60;99.90;;;;;;4991374;28;20434;-70
2022/11/13 07:18:51;;;;;;;;;;;5.60;99.90;;;;;;4990611;28;19929;-70
2022/11/13 07:21:26;;;;;;;;;;;5.60;99.90;;;;;;4992249;28;19926;-70
2022/11/13 07:23:51;;;;;;;;;;;5.60;99.90;;;;;;4991172;28;19944;-70
2022/11/13 07:26:17;;;;;;;;;;;5.60;99.90;;;;;;4992271;28;20377;-69
2022/11/13 07:28:43;;;;;;;;;;;5.70;99.90;;;;;;4990644;28;20035;-70
2022/11/13 07:31:10;;;;;;;;;;;5.70;99.90;;;;;;4991723;28;20297;-70
2022/11/13 07:33:35;;;;;;;;;;;5.80;99.90;;;;;;4996519;28;19922;-71
2022/11/13 07:36:01;;;;;;;;;;;5.80;99.90;;;;;;4994698;28;20265;-70
2022/11/13 07:38:27;;;;;;;;;;;6.20;99.90;;;;;;4994686;28;20401;-70
2022/11/13 07:40:52;;;;;;;;;;;4.70;99.90;;;;;;4990340;28;19967;-70
2022/11/13 07:43:18;;;;;;;;;;;5.80;99.90;;;;;;4991158;28;19922;-69
2022/11/13 07:45:43;;;;;;;;;;;5.90;99.90;;;;;;4990735;28;19929;-71
2022/11/13 07:48:09;;;;;;;;;;;6.00;99.90;;;;;;4991468;28;20000;-70
2022/11/13 07:50:36;;;;;;;;;;;6.00;99.90;;;;;;4990457;28;19975;-69
2022/11/13 07:53:03;;;;;;;;;;;6.10;99.90;;;;;;4989872;28;19974;-70
2022/11/13 07:55:29;;;;;;;;;;;6.20;99.90;;;;;;4991694;28;20323;-69
2022/11/13 07:57:58;;;;;;;;;;;6.30;99.90;;;;;;4990154;28;19971;-70
2022/11/13 08:00:24;;;;;;;;;;;6.40;99.90;;;;;;4991533;28;19936;-70
2022/11/13 08:02:52;;;;;;;;;;;6.50;99.90;;;;;;4991874;28;19921;-70
2022/11/13 08:05:18;;;;;;;;;;;6.60;99.90;;;;;;4990386;28;19928;-71
2022/11/13 08:07:51;;;;;;;;;;;6.70;99.90;;;;;;4989185;28;19982;-71
2022/11/13 08:10:26;;;;;;;;;;;7.00;99.90;;;;;;4989728;28;20330;-70
2022/11/13 08:13:05;;;;;;;;;;;7.50;99.90;;;;;;4988286;28;20393;-70
2022/11/13 08:15:31;;;;;;;;;;;7.80;99.90;;;;;;4991368;28;19961;-68
2022/11/13 08:17:57;;;;;;;;;;;8.30;99.90;;;;;;4989944;28;19928;-72
2022/11/13 08:20:23;;;;;;;;;;;8.90;99.90;;;;;;4989283;28;20009;-71
2022/11/13 08:22:48;;;;;;;;;;;9.70;99.90;;;;;;4994330;28;20016;-72
2022/11/13 08:25:14;;;;;;;;;;;11.00;99.90;;;;;;4990732;28;19975;-72
2022/11/13 08:27:43;;;;;;;;;;;12.40;99.90;;;;;;4990805;28;19921;-71
2022/11/13 08:30:12;;;;;;;;;;;13.60;99.90;;;;;;4991101;28;19932;-71
2022/11/13 08:32:37;;;;;;;;;;;14.30;99.90;;;;;;4990266;28;20368;-70
2022/11/13 08:35:03;;;;;;;;;;;14.80;99.90;;;;;;4991309;28;20009;-70
2022/11/13 08:37:28;;;;;;;;;;;15.00;99.90;;;;;;4991069;28;20008;-71
2022/11/13 08:39:54;;;;;;;;;;;15.10;99.90;;;;;;4989655;28;19972;-70
2022/11/13 08:42:19;;;;;;;;;;;15.60;99.90;;;;;;4991336;28;20365;-71
2022/11/13 08:44:45;;;;;;;;;;;16.00;99.90;;;;;;4992340;28;19929;-70
2022/11/13 08:47:10;;;;;;;;;;;16.30;99.90;;;;;;4988668;28;20026;-70
2022/11/13 08:49:36;;;;;;;;;;;17.00;99.90;;;;;;4987100;28;20384;-71
2022/11/13 08:52:02;;;;;;;;;;;17.70;99.90;;;;;;4991320;28;19926;-72
2022/11/13 08:54:33;;;;;;;;;;;17.80;99.90;;;;;;4989763;28;20322;-75
2022/11/13 08:56:59;;;;;;;;;;;17.60;99.90;;;;;;4988224;28;19922;-75
2022/11/13 08:59:31;;;;;;;;;;;17.30;99.90;;;;;;4987665;28;20373;-75
2022/11/13 09:01:59;;;;;;;;;;;17.10;99.90;;;;;;4988190;28;19928;-73
2022/11/13 09:04:25;;;;;;;;;;;16.90;99.90;;;;;;4988396;28;19975;-73
2022/11/13 09:06:51;;;;;;;;;;;17.00;99.90;;;;;;4988514;28;19926;-73
2022/11/13 09:09:17;;;;;;;;;;;17.50;99.90;;;;;;4987957;28;20357;-72
2022/11/13 09:11:42;;;;;;;;;;;18.30;99.90;;;;;;4989444;28;19921;-73
2022/11/13 09:14:11;;;;;;;;;;;19.00;99.90;;;;;;4989690;28;19921;-73
2022/11/13 09:16:36;;;;;;;;;;;19.20;99.90;;;;;;4989339;28;19929;-73
2022/11/13 09:19:02;;;;;;;;;;;19.50;99.90;;;;;;4992942;28;19930;-73
2022/11/13 09:21:27;;;;;;;;;;;19.80;99.80;;;;;;4989545;28;19926;-73
2022/11/13 09:23:53;;;;;;;;;;;20.10;97.70;;;;;;4993054;28;19928;-73
2022/11/13 09:26:18;;;;;;;;;;;20.50;98.10;;;;;;4988885;28;19925;-72
2022/11/13 09:28:44;;;;;;;;;;;20.60;95.90;;;;;;4988398;28;19926;-72
2022/11/13 09:31:09;;;;;;;;;;;20.80;97.40;;;;;;4990408;28;19971;-68
2022/11/13 09:33:35;;;;;;;;;;;21.20;97.00;;;;;;4989595;28;20008;-72
2022/11/13 09:36:01;;;;;;;;;;;21.60;95.80;;;;;;4989220;28;19973;-73
2022/11/13 09:38:30;;;;;;;;;;;21.80;95.10;;;;;;4990211;28;19925;-73
2022/11/13 09:41:25;;;;;;;;;;;22.20;95.80;;;;;;4991218;28;19967;-72
2022/11/13 09:44:14;;;;;;;;;;;22.70;95.40;;;;;;4972402;28;19926;-73
2022/11/13 09:46:41;;;;;;;;;;;23.00;93.80;;;;;;4981874;28;19929;-73
2022/11/13 09:49:10;;;;;;;;;;;23.30;92.70;;;;;;4990381;28;19973;-73
2022/11/13 09:51:36;;;;;;;;;;;23.40;93.20;;;;;;4989968;28;19951;-73
2022/11/13 09:54:08;;;;;;;;;;;23.40;92.00;;;;;;4990458;28;19922;-73
2022/11/13 09:56:38;;;;;;;;;;;23.40;92.70;;;;;;4993500;28;19921;-73
2022/11/13 09:59:06;;;;;;;;;;;23.10;92.90;;;;;;5000743;28;19929;-72
2022/11/13 10:01:44;;;;;;;;;;;22.70;92.50;;;;;;4994128;28;20001;-73
2022/11/13 10:04:11;;;;;;;;;;;22.50;93.10;;;;;;4995609;28;19949;-72
2022/11/13 10:06:49;;;;;;;;;;;21.30;93.30;;;;;;5001167;28;19985;-73
2022/11/13 10:09:20;;;;;;;;;;;20.20;94.00;;;;;;4989718;28;20452;-72
2022/11/13 10:11:53;;;;;;;;;;;19.30;96.70;;;;;;4991541;28;19991;-75
2022/11/13 10:14:30;;;;;;;;;;;19.70;97.50;;;;;;4993374;28;19922;-75
2022/11/13 10:17:14;;;;;;;;;;;20.70;96.50;;;;;;4995318;28;19944;-73
2022/11/13 10:20:00;;;;;;;;;;;22.10;95.60;;;;;;4987430;28;19921;-70
2022/11/13 10:23:04;;;;;;;;;;;23.20;94.10;;;;;;4993107;28;19984;-70
2022/11/13 10:25:34;;;;;;;;;;;24.00;92.40;;;;;;4996185;28;19928;-71
2022/11/13 10:28:01;;;;;;;;;;;24.80;91.90;;;;;;4997804;28;20406;-71
2022/11/13 10:30:26;;;;;;;;;;;25.10;91.30;;;;;;5000107;28;19932;-72
2022/11/13 10:32:52;;;;;;;;;;;25.20;90.70;;;;;;4991840;28;20299;-73
2022/11/13 10:35:30;;;;;;;;;;;24.80;90.30;;;;;;4988246;28;19925;-70
2022/11/13 10:37:55;;;;;;;;;;;23.80;91.00;;;;;;4990110;28;19922;-71
2022/11/13 10:40:25;;;;;;;;;;;22.80;91.40;;;;;;5004061;28;19916;-69
2022/11/13 10:42:50;;;;;;;;;;;22.70;92.60;;;;;;4996990;28;19926;-74
2022/11/13 10:45:17;;;;;;;;;;;23.40;91.80;;;;;;4996626;28;19928;-71
2022/11/13 10:47:47;;;;;;;;;;;24.10;91.50;;;;;;4996895;28;19922;-71
2022/11/13 10:50:27;;;;;;;;;;;24.70;91.10;;;;;;5002185;28;19928;-71
2022/11/13 10:52:56;;;;;;;;;;;24.90;88.90;;;;;;4994982;28;19922;-71
2022/11/13 10:55:36;;;;;;;;;;;24.50;89.30;;;;;;4996179;28;19926;-70
2022/11/13 10:58:09;;;;;;;;;;;24.30;88.60;;;;;;5001355;28;19926;-70
2022/11/13 11:00:37;;;;;;;;;;;23.90;90.50;;;;;;4992090;28;19928;-69
2022/11/13 11:03:06;;;;;;;;;;;23.40;90.40;;;;;;4995547;28;19929;-70
2022/11/13 11:05:32;;;;;;;;;;;23.00;90.80;;;;;;4994885;28;20376;-69
2022/11/13 11:07:58;;;;;;;;;;;22.30;90.80;;;;;;4991732;28;19976;-69
2022/11/13 11:10:34;;;;;;;;;;;21.70;91.90;;;;;;4996620;28;20398;-70
2022/11/13 11:13:04;;;;;;;;;;;20.90;91.50;;;;;;4990844;28;19944;-70
2022/11/13 11:15:50;;;;;;;;;;;21.00;91.90;;;;;;4989688;28;19929;-70
2022/11/13 11:18:21;;;;;;;;;;;22.10;91.50;;;;;;4994090;28;19929;-70
2022/11/13 11:20:55;;;;;;;;;;;22.50;90.70;;;;;;4992089;28;19928;-70
2022/11/13 11:23:21;;;;;;;;;;;22.10;91.70;;;;;;4989429;28;20377;-72
2022/11/13 11:25:53;;;;;;;;;;;22.20;91.60;;;;;;4992637;28;19928;-71
2022/11/13 11:28:36;;;;;;;;;;;21.70;92.40;;;;;;4993122;28;19930;-70
2022/11/13 11:31:14;;;;;;;;;;;21.30;93.10;;;;;;4991453;28;20300;-71
2022/11/13 11:33:49;;;;;;;;;;;20.90;93.60;;;;;;4991609;28;19921;-71
2022/11/13 11:36:28;;;;;;;;;;;21.40;92.60;;;;;;4989467;28;19973;-71
2022/11/13 11:38:58;;;;;;;;;;;22.20;93.10;;;;;;4987235;28;19922;-71
2022/11/13 11:41:30;;;;;;;;;;;23.10;92.30;;;;;;5007888;28;19957;-71
2022/11/13 11:44:01;;;;;;;;;;;23.70;92.00;;;;;;5009154;28;19928;-71
2022/11/13 11:46:30;;;;;;;;;;;24.30;91.20;;;;;;5007514;28;19973;-70
2022/11/13 11:48:59;;;;;;;;;;;24.40;89.50;;;;;;5009626;28;19922;-70
2022/11/13 11:51:33;;;;;;;;;;;23.90;89.70;;;;;;5009227;28;19929;-70
2022/11/13 11:54:07;;;;;;;;;;;23.40;90.50;;;;;;5013962;28;19964;-69
2022/11/13 11:56:44;;;;;;;;;;;23.30;90.30;;;;;;5020418;28;19920;-65
2022/11/13 11:59:09;;;;;;;;;;;23.00;91.00;;;;;;5006069;28;19922;-67
2022/11/13 12:01:38;;;;;;;;;;;22.60;91.30;;;;;;5008394;28;19926;-66
2022/11/13 12:04:21;;;;;;;;;;;22.30;91.70;;;;;;5010078;28;19925;-67
2022/11/13 12:06:57;;;;;;;;;;;22.40;91.60;;;;;;4993091;28;20422;-65
2022/11/13 12:09:27;;;;;;;;;;;22.80;91.40;;;;;;5004538;28;19990;-68
2022/11/13 12:11:55;;;;;;;;;;;23.00;91.70;;;;;;5005461;28;20381;-66
2022/11/13 12:14:33;;;;;;;;;;;23.70;91.70;;;;;;5024189;28;19920;-66
2022/11/13 12:16:58;;;;;;;;;;;23.60;89.90;;;;;;5005708;28;19926;-68
2022/11/13 12:19:44;;;;;;;;;;;23.40;90.20;;;;;;4989836;28;19932;-69
2022/11/13 12:22:14;;;;;;;;;;;23.70;89.70;;;;;;4995521;28;20048;-69
2022/11/13 12:25:05;;;;;;;;;;;24.20;89.40;;;;;;5003518;28;19975;-70
2022/11/13 12:27:34;;;;;;;;;;;24.60;89.50;;;;;;4997970;28;19929;-70
2022/11/13 12:30:18;;;;;;;;;;;24.90;87.90;;;;;;4999701;28;19921;-70
2022/11/13 12:32:53;;;;;;;;;;;25.10;86.10;;;;;;4993596;28;19929;-78
2022/11/13 12:35:19;;;;;;;;;;;24.90;86.50;;;;;;4981361;28;20596;-75
2022/11/13 12:37:57;;;;;;;;;;;24.70;87.10;;;;;;4998355;28;19975;-75
2022/11/13 12:40:41;;;;;;;;;;;25.00;87.20;;;;;;5001441;28;20013;-75
2022/11/13 12:43:06;;;;;;;;;;;25.50;85.60;;;;;;4988484;28;20280;-76
2022/11/13 12:45:53;;;;;;;;;;;25.30;86.80;;;;;;5010425;28;19926;-73
2022/11/13 12:48:18;;;;;;;;;;;25.20;86.50;;;;;;5012197;28;19946;-78
2022/11/13 12:50:54;;;;;;;;;;;24.90;86.00;;;;;;5001178;28;20335;-72
2022/11/13 12:53:25;;;;;;;;;;;24.70;87.20;;;;;;4998624;28;20005;-75
2022/11/13 12:55:58;;;;;;;;;;;24.40;88.90;;;;;;5004822;28;19933;-81
2022/11/13 12:58:27;;;;;;;;;;;24.00;89.90;;;;;;4987390;28;19921;-77
2022/11/13 13:01:12;;;;;;;;;;;23.70;90.30;;;;;;5001287;28;19917;-75
2022/11/13 13:03:45;;;;;;;;;;;23.40;90.30;;;;;;4984587;28;19930;-72
2022/11/13 13:06:14;;;;;;;;;;;23.10;90.10;;;;;;5013482;28;20283;-71
2022/11/13 13:08:52;;;;;;;;;;;20.80;90.30;;;;;;4988001;28;19929;-76
2022/11/13 13:11:24;;;;;;;;;;;22.20;91.50;;;;;;4995604;28;20454;-74
2022/11/13 13:14:04;;;;;;;;;;;21.70;91.40;;;;;;4993766;28;19978;-74
2022/11/13 13:16:30;;;;;;;;;;;21.20;91.40;;;;;;4993800;28;19922;-75
2022/11/13 13:19:14;;;;;;;;;;;20.60;92.50;;;;;;4994754;28;19929;-77
2022/11/13 13:21:41;;;;;;;;;;;20.00;93.00;;;;;;4991130;28;20292;-69
2022/11/13 13:24:08;;;;;;;;;;;19.60;93.30;;;;;;4996132;28;20017;-74
2022/11/13 13:26:42;;;;;;;;;;;19.20;94.30;;;;;;4994116;28;20016;-72
2022/11/13 13:29:20;;;;;;;;;;;18.80;94.70;;;;;;4992898;28;19930;-75
2022/11/13 13:31:55;;;;;;;;;;;18.50;95.00;;;;;;4992171;28;19987;-73
2022/11/13 13:34:42;;;;;;;;;;;18.10;94.60;;;;;;5004181;28;19916;-70
2022/11/13 13:37:12;;;;;;;;;;;17.80;95.10;;;;;;4990525;28;19934;-69
2022/11/13 13:39:58;;;;;;;;;;;17.60;95.90;;;;;;5000494;28;19969;-70
2022/11/13 13:42:36;;;;;;;;;;;17.30;95.80;;;;;;4991978;28;19927;-71
2022/11/13 13:45:09;;;;;;;;;;;17.10;96.50;;;;;;4984858;28;20388;-70
2022/11/13 13:47:37;;;;;;;;;;;16.80;97.30;;;;;;4989775;28;19921;-69
2022/11/13 13:50:07;;;;;;;;;;;16.50;97.20;;;;;;4991619;28;19932;-72
2022/11/13 13:52:34;;;;;;;;;;;16.30;98.10;;;;;;4985155;28;19928;-70
2022/11/13 13:55:04;;;;;;;;;;;16.10;98.00;;;;;;4986308;28;20008;-71
2022/11/13 13:57:29;;;;;;;;;;;15.90;98.30;;;;;;4989713;28;19941;-71
2022/11/13 13:59:57;;;;;;;;;;;15.70;99.50;;;;;;4991750;28;19925;-71
2022/11/13 14:02:23;;;;;;;;;;;15.60;99.80;;;;;;4989049;28;19930;-72
2022/11/13 14:04:53;;;;;;;;;;;15.50;99.90;;;;;;4989240;28;20376;-70
2022/11/13 14:07:28;;;;;;;;;;;17.40;99.90;;;;;;4990964;28;20292;-72
2022/11/13 14:10:03;;;;;;;;;;;15.40;99.90;;;;;;4991867;28;19925;-72
2022/11/13 14:12:29;;;;;;;;;;;15.20;99.90;;;;;;4987352;28;19929;-72
2022/11/13 14:14:54;;;;;;;;;;;15.20;99.90;;;;;;4993403;28;20284;-73
2022/11/13 14:17:22;;;;;;;;;;;15.10;99.90;;;;;;4997737;28;19936;-72
2022/11/13 14:19:59;;;;;;;;;;;15.00;99.90;;;;;;4997460;28;19922;-72
2022/11/13 14:22:25;;;;;;;;;;;14.90;99.90;;;;;;4998536;28;19922;-72
2022/11/13 14:24:53;;;;;;;;;;;14.90;99.90;;;;;;5010912;28;19926;-71
2022/11/13 14:27:21;;;;;;;;;;;14.70;99.90;;;;;;4989702;28;20383;-72
2022/11/13 14:29:51;;;;;;;;;;;14.70;99.90;;;;;;4991969;28;19983;-70
2022/11/13 14:32:17;;;;;;;;;;;14.50;99.90;;;;;;4990137;28;19931;-75